Island Lookout — WDF6311 — position and weather

sailwx.info

Track history (hours):
 
Tides and Currents Weather Stations Pressure Air Temp Water Temp Dewpoint Dewpoint Depression Visibility Wind Speed Wind Dir Waves Ship Positions

Island Lookout

Owner: Stevens Towing Company Inc., Yonges Island, SC. More information available from US FCC via Universal Licensing System and Coast Guard Vessel Documentation Center.

Last reported at 2016-Jul-29 00:13 UTC. Time now 2016-Jul-29 14:04 UTC.
Position N 36°44' W 076°16'.

Length 22 m; draft 2.9 m.

Type: Towing. MMSI: 367472930.

Date/timePositionNaut miles runAvg speedWind from/ knotsBaromVisibWave heightAir tempDewpointWater temp
2016-Jul-29 00:13N 36°44' W 076°16'2 3.1
2016-Jul-28 23:33N 36°45' W 076°18'2 1.6
2016-Jul-28 22:33N 36°47' W 076°18'0 0.5
2016-Jul-28 21:33N 36°47' W 076°18'5 5.2
2016-Jul-28 20:33N 36°52' W 076°20'104 6.5
2016-Jul-28 04:31N 38°36' W 076°27'12 5.9
2016-Jul-28 02:26N 38°49' W 076°27'13 6.3
2016-Jul-28 00:22N 39°01' W 076°22'26 6.7
2016-Jul-27 20:31N 39°23' W 076°05'6 5.8
2016-Jul-27 19:33N 39°27' W 075°59'5 5.2
2016-Jul-27 18:34N 39°31' W 075°54'4 4.1
2016-Jul-27 17:33N 39°32' W 075°49'4 4.0
2016-Jul-27 16:34N 39°32' W 075°44'5 5.0
2016-Jul-27 15:33N 39°33' W 075°38'4 4.4
2016-Jul-27 14:33N 39°37' W 075°35'8 8.1
2016-Jul-27 13:33N 39°44' W 075°30'7 7.2
2016-Jul-27 12:33N 39°49' W 075°23'5 5.4
2016-Jul-27 11:33N 39°51' W 075°16'5 4.9
2016-Jul-27 10:33N 39°53' W 075°11'4 3.7
2016-Jul-27 09:33N 39°56' W 075°08'0 0.0
2016-Jul-27 08:33N 39°56' W 075°08'0 0.0
2016-Jul-27 07:33N 39°56' W 075°08'0 0.0
2016-Jul-27 06:33N 39°56' W 075°08'0 0.0
2016-Jul-27 05:33N 39°56' W 075°08'0 0.0
2016-Jul-27 04:33N 39°56' W 075°08'0 0.0
2016-Jul-27 03:33N 39°56' W 075°08'1 0.5
2016-Jul-27 02:33N 39°56' W 075°08'1 0.5
2016-Jul-27 01:33N 39°56' W 075°08'0 0.0
2016-Jul-27 00:33N 39°56' W 075°08'0 0.0
2016-Jul-26 23:33N 39°56' W 075°08'0 0.0
2016-Jul-26 22:33N 39°56' W 075°08'0 0.0
2016-Jul-26 21:33N 39°56' W 075°08'0 0.0
2016-Jul-26 20:33N 39°56' W 075°08'4 3.8
2016-Jul-26 19:33N 39°53' W 075°11'4 3.7
2016-Jul-26 18:33N 39°51' W 075°15'2 2.3
2016-Jul-26 17:33N 39°52' W 075°13'5 4.8
2016-Jul-26 16:33N 39°56' W 075°08'0 0.2
2016-Jul-26 15:33N 39°56' W 075°08'0 0.0
2016-Jul-26 14:33N 39°56' W 075°08'0 0.0
2016-Jul-26 13:34N 39°56' W 075°08'0 0.0
2016-Jul-26 12:33N 39°56' W 075°08'0 0.0
2016-Jul-26 11:33N 39°56' W 075°08'0 0.0
2016-Jul-26 10:33N 39°56' W 075°08'0 0.0
2016-Jul-26 09:33N 39°56' W 075°08'0 0.0
2016-Jul-26 08:33N 39°56' W 075°08'0 0.0
2016-Jul-26 07:33N 39°56' W 075°08'1 0.7
2016-Jul-26 06:33N 39°55' W 075°08'5 4.7
2016-Jul-26 05:33N 39°52' W 075°13'6 5.8
2016-Jul-26 04:33N 39°51' W 075°20'5 5.2
2016-Jul-26 03:34N 39°48' W 075°26'5 5.0
2016-Jul-26 02:34N 39°44' W 075°30'5 4.9
2016-Jul-26 01:33N 39°40' W 075°32'4 3.9
2016-Jul-26 00:33N 39°36' W 075°34'3 3.1
2016-Jul-25 23:33N 39°33' W 075°36'6 5.6
2016-Jul-25 22:33N 39°33' W 075°43'5 5.1
2016-Jul-25 21:33N 39°32' W 075°50'5 4.9
2016-Jul-25 20:33N 39°30' W 075°56'6 5.6
2016-Jul-25 19:33N 39°26' W 076°01'6 5.9
2016-Jul-25 18:33N 39°23' W 076°07'34 6.6
2016-Jul-25 13:25N 38°52' W 076°25'7 7.8
2016-Jul-25 12:32N 38°45' W 076°27'38 7.6
2016-Jul-25 07:31N 38°07' W 076°16'22 7.3
2016-Jul-25 04:33N 37°46' W 076°11'7 6.9
2016-Jul-25 03:33N 37°39' W 076°12'7 6.9
2016-Jul-25 02:33N 37°32' W 076°11'40 6.5
2016-Jul-24 20:21N 36°53' W 076°20'5 6.7
2016-Jul-24 19:33N 36°48' W 076°18'2 1.9
2016-Jul-24 18:33N 36°46' W 076°18'3 3.1
2016-Jul-24 17:33N 36°44' W 076°16'1 0.9
2016-Jul-24 16:33N 36°43' W 076°15'0 0.0
2016-Jul-24 15:33N 36°43' W 076°15'0 0.0
2016-Jul-22 14:06N 36°43' W 076°14'1 0.1
2016-Jul-21 20:23N 36°44' W 076°16'2 2.9
2016-Jul-21 19:33N 36°46' W 076°18'2 2.0
2016-Jul-21 18:33N 36°48' W 076°18'5 5.2
2016-Jul-21 17:32N 36°53' W 076°20'68 5.0
2016-Jul-21 04:08N 38°00' W 076°14'69 6.5
2016-Jul-20 17:32N 39°09' W 076°25'6 6.1
2016-Jul-20 16:32N 39°12' W 076°31'3 2.9
2016-Jul-20 15:33N 39°14' W 076°33'0 0.3
2016-Jul-20 14:33N 39°15' W 076°34'1 1.3
2016-Jul-20 13:33N 39°13' W 076°33'3 2.8
2016-Jul-20 12:33N 39°13' W 076°30'0 0.0
2016-Jul-20 11:33N 39°13' W 076°30'0 0.0
2016-Jul-20 10:33N 39°13' W 076°30'0 0.0
2016-Jul-20 09:34N 39°13' W 076°30'0 0.0
2016-Jul-20 08:33N 39°13' W 076°30'0 0.0
2016-Jul-20 07:33N 39°13' W 076°30'0 0.0
2016-Jul-20 06:33N 39°13' W 076°30'0 0.0
2016-Jul-20 05:33N 39°13' W 076°30'0 0.0
2016-Jul-20 04:33N 39°13' W 076°30'0 0.0
2016-Jul-20 03:33N 39°13' W 076°30'0 0.0
2016-Jul-20 02:33N 39°13' W 076°30'0 0.0
2016-Jul-20 01:33N 39°13' W 076°30'4 4.1
2016-Jul-20 00:33N 39°12' W 076°35'0 0.0
2016-Jul-19 23:33N 39°12' W 076°35'0 0.0
2016-Jul-19 22:33N 39°12' W 076°35'0 0.0
2016-Jul-19 21:33N 39°12' W 076°35'1 1.5
2016-Jul-19 20:33N 39°14' W 076°34'1 1.3
2016-Jul-19 19:33N 39°13' W 076°32'2 2.0
2016-Jul-19 18:33N 39°13' W 076°30'6 5.5
2016-Jul-19 17:31N 39°09' W 076°25'12 5.7
2016-Jul-19 15:25N 38°57' W 076°24'18 6.2
2016-Jul-19 12:29N 38°39' W 076°27'68 6.8
2016-Jul-19 02:25N 37°32' W 076°11'7 7.6
2016-Jul-19 01:33N 37°26' W 076°10'  
Track history (hours):
 
Tides and Currents Weather Stations Pressure Air Temp Water Temp Dewpoint Dewpoint Depression Visibility Wind Speed Wind Dir Waves Ship Positions

Island Lookout

Owner: Stevens Towing Company Inc., Yonges Island, SC. More information available from US FCC via Universal Licensing System and Coast Guard Vessel Documentation Center.

Last reported at 2016-Jul-29 00:13 UTC. Time now 2016-Jul-29 14:04 UTC.
Position N 36°44' W 076°16'.

Length 22 m; draft 2.9 m.

Type: Towing. MMSI: 367472930.

Date/timePositionNaut miles runAvg speedWind from/ knotsBaromVisibWave heightAir tempDewpointWater temp
2016-Jul-29 00:13N 36°44' W 076°16'2 3.1
2016-Jul-28 23:33N 36°45' W 076°18'2 1.6
2016-Jul-28 22:33N 36°47' W 076°18'0 0.5
2016-Jul-28 21:33N 36°47' W 076°18'5 5.2
2016-Jul-28 20:33N 36°52' W 076°20'104 6.5
2016-Jul-28 04:31N 38°36' W 076°27'12 5.9
2016-Jul-28 02:26N 38°49' W 076°27'13 6.3
2016-Jul-28 00:22N 39°01' W 076°22'26 6.7
2016-Jul-27 20:31N 39°23' W 076°05'6 5.8
2016-Jul-27 19:33N 39°27' W 075°59'5 5.2
2016-Jul-27 18:34N 39°31' W 075°54'4 4.1
2016-Jul-27 17:33N 39°32' W 075°49'4 4.0
2016-Jul-27 16:34N 39°32' W 075°44'5 5.0
2016-Jul-27 15:33N 39°33' W 075°38'4 4.4
2016-Jul-27 14:33N 39°37' W 075°35'8 8.1
2016-Jul-27 13:33N 39°44' W 075°30'7 7.2
2016-Jul-27 12:33N 39°49' W 075°23'5 5.4
2016-Jul-27 11:33N 39°51' W 075°16'5 4.9
2016-Jul-27 10:33N 39°53' W 075°11'4 3.7
2016-Jul-27 09:33N 39°56' W 075°08'0 0.0
2016-Jul-27 08:33N 39°56' W 075°08'0 0.0
2016-Jul-27 07:33N 39°56' W 075°08'0 0.0
2016-Jul-27 06:33N 39°56' W 075°08'0 0.0
2016-Jul-27 05:33N 39°56' W 075°08'0 0.0
2016-Jul-27 04:33N 39°56' W 075°08'0 0.0
2016-Jul-27 03:33N 39°56' W 075°08'1 0.5
2016-Jul-27 02:33N 39°56' W 075°08'1 0.5
2016-Jul-27 01:33N 39°56' W 075°08'0 0.0
2016-Jul-27 00:33N 39°56' W 075°08'0 0.0
2016-Jul-26 23:33N 39°56' W 075°08'0 0.0
2016-Jul-26 22:33N 39°56' W 075°08'0 0.0
2016-Jul-26 21:33N 39°56' W 075°08'0 0.0
2016-Jul-26 20:33N 39°56' W 075°08'4 3.8
2016-Jul-26 19:33N 39°53' W 075°11'4 3.7
2016-Jul-26 18:33N 39°51' W 075°15'2 2.3
2016-Jul-26 17:33N 39°52' W 075°13'5 4.8
2016-Jul-26 16:33N 39°56' W 075°08'0 0.2
2016-Jul-26 15:33N 39°56' W 075°08'0 0.0
2016-Jul-26 14:33N 39°56' W 075°08'0 0.0
2016-Jul-26 13:34N 39°56' W 075°08'0 0.0
2016-Jul-26 12:33N 39°56' W 075°08'0 0.0
2016-Jul-26 11:33N 39°56' W 075°08'0 0.0
2016-Jul-26 10:33N 39°56' W 075°08'0 0.0
2016-Jul-26 09:33N 39°56' W 075°08'0 0.0
2016-Jul-26 08:33N 39°56' W 075°08'0 0.0
2016-Jul-26 07:33N 39°56' W 075°08'1 0.7
2016-Jul-26 06:33N 39°55' W 075°08'5 4.7
2016-Jul-26 05:33N 39°52' W 075°13'6 5.8
2016-Jul-26 04:33N 39°51' W 075°20'5 5.2
2016-Jul-26 03:34N 39°48' W 075°26'5 5.0
2016-Jul-26 02:34N 39°44' W 075°30'5 4.9
2016-Jul-26 01:33N 39°40' W 075°32'4 3.9
2016-Jul-26 00:33N 39°36' W 075°34'3 3.1
2016-Jul-25 23:33N 39°33' W 075°36'6 5.6
2016-Jul-25 22:33N 39°33' W 075°43'5 5.1
2016-Jul-25 21:33N 39°32' W 075°50'5 4.9
2016-Jul-25 20:33N 39°30' W 075°56'6 5.6
2016-Jul-25 19:33N 39°26' W 076°01'6 5.9
2016-Jul-25 18:33N 39°23' W 076°07'34 6.6
2016-Jul-25 13:25N 38°52' W 076°25'7 7.8
2016-Jul-25 12:32N 38°45' W 076°27'38 7.6
2016-Jul-25 07:31N 38°07' W 076°16'22 7.3
2016-Jul-25 04:33N 37°46' W 076°11'7 6.9
2016-Jul-25 03:33N 37°39' W 076°12'7 6.9
2016-Jul-25 02:33N 37°32' W 076°11'40 6.5
2016-Jul-24 20:21N 36°53' W 076°20'5 6.7
2016-Jul-24 19:33N 36°48' W 076°18'2 1.9
2016-Jul-24 18:33N 36°46' W 076°18'3 3.1
2016-Jul-24 17:33N 36°44' W 076°16'1 0.9
2016-Jul-24 16:33N 36°43' W 076°15'0 0.0
2016-Jul-24 15:33N 36°43' W 076°15'0 0.0
2016-Jul-22 14:06N 36°43' W 076°14'1 0.1
2016-Jul-21 20:23N 36°44' W 076°16'2 2.9
2016-Jul-21 19:33N 36°46' W 076°18'2 2.0
2016-Jul-21 18:33N 36°48' W 076°18'5 5.2
2016-Jul-21 17:32N 36°53' W 076°20'68 5.0
2016-Jul-21 04:08N 38°00' W 076°14'69 6.5
2016-Jul-20 17:32N 39°09' W 076°25'6 6.1
2016-Jul-20 16:32N 39°12' W 076°31'3 2.9
2016-Jul-20 15:33N 39°14' W 076°33'0 0.3
2016-Jul-20 14:33N 39°15' W 076°34'1 1.3
2016-Jul-20 13:33N 39°13' W 076°33'3 2.8
2016-Jul-20 12:33N 39°13' W 076°30'0 0.0
2016-Jul-20 11:33N 39°13' W 076°30'0 0.0
2016-Jul-20 10:33N 39°13' W 076°30'0 0.0
2016-Jul-20 09:34N 39°13' W 076°30'0 0.0
2016-Jul-20 08:33N 39°13' W 076°30'0 0.0
2016-Jul-20 07:33N 39°13' W 076°30'0 0.0
2016-Jul-20 06:33N 39°13' W 076°30'0 0.0
2016-Jul-20 05:33N 39°13' W 076°30'0 0.0
2016-Jul-20 04:33N 39°13' W 076°30'0 0.0
2016-Jul-20 03:33N 39°13' W 076°30'0 0.0
2016-Jul-20 02:33N 39°13' W 076°30'0 0.0
2016-Jul-20 01:33N 39°13' W 076°30'4 4.1
2016-Jul-20 00:33N 39°12' W 076°35'0 0.0
2016-Jul-19 23:33N 39°12' W 076°35'0 0.0
2016-Jul-19 22:33N 39°12' W 076°35'0 0.0
2016-Jul-19 21:33N 39°12' W 076°35'1 1.5
2016-Jul-19 20:33N 39°14' W 076°34'1 1.3
2016-Jul-19 19:33N 39°13' W 076°32'2 2.0
2016-Jul-19 18:33N 39°13' W 076°30'6 5.5
2016-Jul-19 17:31N 39°09' W 076°25'12 5.7
2016-Jul-19 15:25N 38°57' W 076°24'18 6.2
2016-Jul-19 12:29N 38°39' W 076°27'68 6.8
2016-Jul-19 02:25N 37°32' W 076°11'7 7.6
2016-Jul-19 01:33N 37°26' W 076°10'  

Dump ship's entire track history